6NK weather

Syracuse Suburban Airport
Syracuse, New York, United States

Public forecast

Using degrees Fahrenheit for public forecast. Weather courtesy of forecast.io.

METAR (pilot weather report)

Closest report is Syracuse Hancock International Airport, 9.8 nm (18.1 km) SSE. Retrieved 2019/09/23 15:54 UTC (32 minutes ago):

KSYR 231554Z 24008KT 10SM FEW045 BKN090 OVC140 25/16 A2977 RMK AO2 SLP076 T02500161

TAF (pilot weather forecast)

Closest forecast is Syracuse Hancock International Airport, 9.8 nm (18.1 km) SSE. Retrieved 2019/09/23 12:42 UTC (4 hours ago):

TAF KSYR 231139Z 2312/2412 22008KT P6SM SCT070 BKN150 FM231600 24012G20KT P6SM BKN060 OVC120 TEMPO 2316/2320 4SM -SHRA OVC025 FM240000 27012KT P6SM SCT045 BKN080 FM240700 27005KT P6SM BKN025 FM240900 27005KT P6SM -SHRA BKN015 OVC040